sensor_id;sensor_type;location;lat;lon;timestamp;pressure;altitude;pressure_sealevel;temperature;humidity
15558;BME280;7880;50.110;9.372;2022-09-17T06:34:14;8.198180221044458;;;8.187;100.0
15558;BME280;7880;50.110;9.372;2022-09-17T06:39:11;8.188095885887742;;;8.187;100.0
15558;BME280;7880;50.110;9.372;2022-09-17T06:44:14;8.233475403260673;;;8.187;100.0
15558;BME280;7880;50.110;9.372;2022-09-17T06:49:19;8.329276684019714;;;8.312;100.0
15558;BME280;7880;50.110;9.372;2022-09-17T06:54:25;8.30406581047573;;;8.312;100.0
15558;BME280;7880;50.110;9.372;2022-09-17T06:59:39;8.288939289841801;;;8.312;100.0
15558;BME280;7880;50.110;9.372;2022-09-17T07:04:40;8.293981463095406;;;8.25;100.0
15558;BME280;7880;50.110;9.372;2022-09-17T07:09:43;8.31415015902021;;;8.312;100.0
15558;BME280;7880;50.110;9.372;2022-09-17T07:14:44;8.38474063142785;;;8.375;100.0
15558;BME280;7880;50.110;9.372;2022-09-17T07:19:48;8.36961409682408;;;8.375;100.0
15558;BME280;7880;50.110;9.372;2022-09-17T07:24:53;8.636849927116419;;;8.562;100.0
15558;BME280;7880;50.110;9.372;2022-09-17T07:29:56;8.465415526885772;;;8.5;100.0
15558;BME280;7880;50.110;9.372;2022-09-17T07:35:01;8.606596773216733;;;8.562;100.0
15558;BME280;7880;50.110;9.372;2022-09-17T07:40:27;8.677187481947476;;;8.625;100.0
15558;BME280;7880;50.110;9.372;2022-09-17T07:45:27;8.762904847809114;;;8.687;100.0
15558;BME280;7880;50.110;9.372;2022-09-17T07:50:33;8.818369070539484;;;8.812;100.0
15558;BME280;7880;50.110;9.372;2022-09-17T07:55:37;8.818369070539484;;;8.812;100.0
15558;BME280;7880;50.110;9.372;2022-09-17T08:00:38;8.873833328485489;;;8.875;100.0
15558;BME280;7880;50.110;9.372;2022-09-17T08:05:42;9.025099665508606;;;9.0;100.0
15558;BME280;7880;50.110;9.372;2022-09-17T08:10:46;9.090648492897163;;;9.062;100.0
15558;BME280;7880;50.110;9.372;2022-09-17T08:15:58;9.060395181836792;;;9.062;100.0
15558;BME280;7880;50.110;9.372;2022-09-17T08:20:56;9.035184097290038;;;9.062;100.0
15558;BME280;7880;50.110;9.372;2022-09-17T08:26:00;9.085606273659504;;;9.125;100.0
15558;BME280;7880;50.110;9.372;2022-09-17T08:31:04;9.156197369471192;;;9.187;100.0
15558;BME280;7880;50.110;9.372;2022-09-17T08:36:09;9.181408488942543;;;9.187;100.0
15558;BME280;7880;50.110;9.372;2022-09-17T08:41:27;9.277210809290409;;;9.312;100.0
15558;BME280;7880;50.110;9.372;2022-09-17T08:46:21;9.312506427482003;;;9.312;100.0
15558;BME280;7880;50.110;9.372;2022-09-17T08:51:27;9.408308891602791;;;9.375;100.0
15558;BME280;7880;50.110;9.372;2022-09-17T08:56:25;9.317548659816385;;;9.375;100.0
15558;BME280;7880;50.110;9.372;2022-09-17T09:01:34;9.483942490123445;;;9.437;100.0
15558;BME280;7880;50.110;9.372;2022-09-17T09:06:35;9.725970445439453;;;9.687;100.0
15558;BME280;7880;50.110;9.372;2022-09-17T09:11:36;9.796562058717246;;;9.75;100.0
15558;BME280;7880;50.110;9.372;2022-09-17T09:16:41;10.063802254293114;;;10.062;100.0
15558;BME280;7880;50.110;9.372;2022-09-17T09:21:56;9.857069201214472;;;9.875;100.0
15558;BME280;7880;50.110;9.372;2022-09-17T09:26:55;9.786477539042243;;;9.812;100.0
15558;BME280;7880;50.110;9.372;2022-09-17T09:32:07;10.028506332548568;;;10.0;100.0
15558;BME280;7880;50.110;9.372;2022-09-17T09:37:11;10.159605542343343;;;10.187;100.0
15558;BME280;7880;50.110;9.372;2022-09-17T09:42:12;10.104140468034894;;;10.125;100.0
15558;BME280;7880;50.110;9.372;2022-09-17T09:47:17;10.164647823572158;;;10.187;100.0
15558;BME280;7880;50.110;9.372;2022-09-17T09:52:24;10.189859234081814;;;10.25;100.0
15558;BME280;7880;50.110;9.372;2022-09-17T09:57:21;10.119267302990192;;;10.187;100.0
15558;BME280;7880;50.110;9.372;2022-09-17T10:02:22;10.003294968605042;;;10.0;100.0
15558;BME280;7880;50.110;9.372;2022-09-17T10:07:23;10.189859234081814;;;10.062;100.0
15558;BME280;7880;50.110;9.372;2022-09-17T10:12:27;10.356254725926556;;;10.375;100.0
15558;BME280;7880;50.110;9.372;2022-09-17T10:17:37;10.2554089354584;;;10.312;100.0
15558;BME280;7880;50.110;9.372;2022-09-17T10:22:40;10.502481328888098;;;10.437;100.0
15558;BME280;7880;50.110;9.372;2022-09-17T10:27:47;10.663835105864564;;;10.625;100.0
15558;BME280;7880;50.110;9.372;2022-09-17T10:33:13;11.3748037353158;;;11.25;100.0
15558;BME280;7880;50.110;9.372;2022-09-17T10:37:53;11.016797532007331;;;11.187;99.29552122478785
15558;BME280;7880;50.110;9.372;2022-09-17T10:43:20;10.835273820447037;;;10.937;100.0
15558;BME280;7880;50.110;9.372;2022-09-17T10:48:04;10.613412018545205;;;10.687;100.0
15558;BME280;7880;50.110;9.372;2022-09-17T10:53:15;10.603327404573793;;;10.625;100.0
15558;BME280;7880;50.110;9.372;2022-09-17T10:58:23;10.341127849934855;;;10.375;100.0
15558;BME280;7880;50.110;9.372;2022-09-17T11:04:21;10.260451222216943;;;10.25;100.0
15558;BME280;7880;50.110;9.372;2022-09-17T11:09:20;10.351212433638285;;;10.25;100.0
15558;BME280;7880;50.110;9.372;2022-09-17T11:14:22;10.68400434894138;;;10.625;100.0
15558;BME280;7880;50.110;9.372;2022-09-17T11:19:28;10.825189180864253;;;10.812;99.82690737906432
15558;BME280;7880;50.110;9.372;2022-09-17T11:24:37;10.744512106111506;;;10.812;98.62924139370368
15558;BME280;7880;50.110;9.372;2022-09-17T11:29:42;10.739469791413285;;;10.75;95.97306847051678
15558;BME280;7880;50.110;9.372;2022-09-17T11:34:35;10.905866330122809;;;10.937;97.4759962752568
15558;BME280;7880;50.110;9.372;2022-09-17T11:39:42;11.833658901700982;;;11.75;95.13701841534778
15558;BME280;7880;50.110;9.372;2022-09-17T11:44:49;11.33950728388154;;;11.437;90.08544705712629
15558;BME280;7880;50.110;9.372;2022-09-17T11:49:56;11.389930790296058;;;11.5;86.83720335065838
15558;BME280;7880;50.110;9.372;2022-09-17T11:55:17;11.64709112572018;;;11.625;85.87367037087346
15558;BME280;7880;50.110;9.372;2022-09-17T12:00:12;11.702557179663563;;;11.812;85.73802004658485
15558;BME280;7880;50.110;9.372;2022-09-17T12:05:14;11.531116763089084;;;11.625;85.4558552179858
15558;BME280;7880;50.110;9.372;2022-09-17T12:10:22;11.75298089562566;;;11.875;85.51762825268483
15558;BME280;7880;50.110;9.372;2022-09-17T12:15:22;11.460523748170818;;;11.562;83.729160773213
15558;BME280;7880;50.110;9.372;2022-09-17T12:20:41;11.36471903345082;;;11.437;85.81010371062783
15558;BME280;7880;50.110;9.372;2022-09-17T12:25:33;11.571455654368037;;;11.562;85.3079661595293
15558;BME280;7880;50.110;9.372;2022-09-17T12:30:37;11.838701279554517;;;11.875;84.66991460804739
15558;BME280;7880;50.110;9.372;2022-09-17T12:35:56;11.914336982282112;;;11.937;83.29948723503158
15558;BME280;7880;50.110;9.372;2022-09-17T12:40:48;12.131159693025984;;;12.25;79.37601668944981
15558;BME280;7880;50.110;9.372;2022-09-17T12:45:08;12.166456464311342;;;12.25;81.83575874730312
15558;BME280;7880;50.110;9.372;2022-09-17T12:50:04;12.050481412210502;;;12.187;81.6551329974222
15558;BME280;7880;50.110;9.372;2022-09-17T12:55:11;12.050481412210502;;;12.125;80.94389031265662
15558;BME280;7880;50.110;9.372;2022-09-17T13:00:04;11.884082693333038;;;11.937;82.70669655783703
15558;BME280;7880;50.110;9.372;2022-09-17T13:05:28;12.237050049664685;;;12.25;84.58756609675291
15558;BME280;7880;50.110;9.372;2022-09-17T13:10:28;12.010142299742437;;;12.062;79.77522459993757
15558;BME280;7880;50.110;9.372;2022-09-17T13:15:41;12.050481412210502;;;12.125;77.88118018063604
15558;BME280;7880;50.110;9.372;2022-09-17T13:20:31;12.226965248264605;;;12.25;79.13229537301612
15558;BME280;7880;50.110;9.372;2022-09-17T13:25:31;12.24713485222892;;;12.25;75.60919126647214
15558;BME280;7880;50.110;9.372;2022-09-17T13:30:55;12.232007648819126;;;12.375;77.0119290594481
15558;BME280;7880;50.110;9.372;2022-09-17T13:35:48;12.216880448028679;;;12.25;76.33496526737179
15558;BME280;7880;50.110;9.372;2022-09-17T13:40:46;12.201753249857575;;;12.312;72.4730294306782
15558;BME280;7880;50.110;9.372;2022-09-17T13:46:06;12.186626054305815;;;12.25;70.47909735060364
15558;BME280;7880;50.110;9.372;2022-09-17T13:51:42;12.116032509697835;;;12.187;73.24248801465198
15558;BME280;7880;50.110;9.372;2022-09-17T13:56:36;12.04543902213336;;;12.062;74.693803662976
15558;BME280;7880;50.110;9.372;2022-09-17T14:01:56;12.146286878973479;;;12.187;71.59654366445305
15558;BME280;7880;50.110;9.372;2022-09-17T14:07:31;12.363110165391117;;;12.5;72.91979365650316
15558;BME280;7880;50.110;9.372;2022-09-17T14:12:50;12.196710851049284;;;12.25;74.08390011754241
15558;BME280;7880;50.110;9.372;2022-09-17T14:17:48;12.131159693025984;;;12.25;75.48265433779352
15558;BME280;7880;50.110;9.372;2022-09-17T14:22:35;11.672302964056144;;;11.875;83.80476937306015
15558;BME280;7880;50.110;9.372;2022-09-17T14:27:47;11.24874504567706;;;11.25;84.33141278070649
15558;BME280;7880;50.110;9.372;2022-09-17T14:32:49;11.18823693926097;;;11.125;90.19266139531771
15558;BME280;7880;50.110;9.372;2022-09-17T14:37:54;11.117644201411167;;;11.062;88.03881442853115
15558;BME280;7880;50.110;9.372;2022-09-17T14:42:54;11.062178518832662;;;11.0;90.26096109999406
15558;BME280;7880;50.110;9.372;2022-09-17T14:48:29;10.810062223672867;;;10.812;90.4235869168193
15558;BME280;7880;50.110;9.372;2022-09-17T14:53:15;10.70417359667481;;;10.687;91.03365199986926
15558;BME280;7880;50.110;9.372;2022-09-17T14:58:28;10.482312127720798;;;10.437;95.34720183527497
15558;BME280;7880;50.110;9.372;2022-09-17T15:03:21;9.86211146498099;;;9.937;97.8196944844224
15558;BME280;7880;50.110;9.372;2022-09-17T15:08:26;9.8066465795564;;;9.687;100.0
15558;BME280;7880;50.110;9.372;2022-09-17T15:13:30;9.7814352796413;;;9.562;100.0
15558;BME280;7880;50.110;9.372;2022-09-17T15:18:35;9.700759168807418;;;9.5;100.0
15558;BME280;7880;50.110;9.372;2022-09-17T15:23:37;9.857069201214472;;;9.625;100.0
15558;BME280;7880;50.110;9.372;2022-09-17T15:28:43;9.736054958129534;;;9.625;100.0
15558;BME280;7880;50.110;9.372;2022-09-17T15:33:45;10.265493509266525;;;10.0;100.0
15558;BME280;7880;50.110;9.372;2022-09-17T15:38:48;9.58478739001439;;;9.562;100.0
15558;BME280;7880;50.110;9.372;2022-09-17T15:43:53;9.604956383962417;;;9.5;100.0
15558;BME280;7880;50.110;9.372;2022-09-17T15:49:02;9.736054958129534;;;9.625;100.0
15558;BME280;7880;50.110;9.372;2022-09-17T15:54:05;9.816731101559707;;;9.687;100.0
15558;BME280;7880;50.110;9.372;2022-09-17T15:59:21;9.796562058717246;;;9.687;100.0
15558;BME280;7880;50.110;9.372;2022-09-17T16:04:28;9.741097214911132;;;9.625;100.0
15558;BME280;7880;50.110;9.372;2022-09-17T16:09:49;9.58478739001439;;;9.5;100.0
15558;BME280;7880;50.110;9.372;2022-09-17T16:14:30;9.645294385828311;;;9.562;100.0
15558;BME280;7880;50.110;9.372;2022-09-17T16:19:33;9.645294385828311;;;9.5;100.0
15558;BME280;7880;50.110;9.372;2022-09-17T16:24:35;9.62008313247934;;;9.5;100.0
15558;BME280;7880;50.110;9.372;2022-09-17T16:29:41;9.488984732353128;;;9.375;100.0
15558;BME280;7880;50.110;9.372;2022-09-17T16:34:47;9.514195947867119;;;9.437;100.0
15558;BME280;7880;50.110;9.372;2022-09-17T16:39:52;9.554533907823497;;;9.437;100.0
15558;BME280;7880;50.110;9.372;2022-09-17T16:44:56;9.45368904285715;;;9.375;100.0
15558;BME280;7880;50.110;9.372;2022-09-17T16:50:00;9.448646802664735;;;9.375;100.0
15558;BME280;7880;50.110;9.372;2022-09-17T16:55:03;9.39822441674769;;;9.312;100.0
15558;BME280;7880;50.110;9.372;2022-09-17T17:00:10;9.342759825853864;;;9.312;100.0
15558;BME280;7880;50.110;9.372;2022-09-17T17:05:12;9.342759825853864;;;9.312;100.0
15558;BME280;7880;50.110;9.372;2022-09-17T17:10:17;9.347802059934475;;;9.312;100.0
15558;BME280;7880;50.110;9.372;2022-09-17T17:15:23;9.408308891602791;;;9.312;100.0
15558;BME280;7880;50.110;9.372;2022-09-17T17:20:26;9.2620841201453;;;9.187;100.0
15558;BME280;7880;50.110;9.372;2022-09-17T17:25:31;9.201577389758313;;;9.125;100.0
15558;BME280;7880;50.110;9.372;2022-09-17T17:30:37;9.201577389758313;;;9.125;100.0
15558;BME280;7880;50.110;9.372;2022-09-17T17:35:42;9.231830749713117;;;9.187;100.0
15558;BME280;7880;50.110;9.372;2022-09-17T17:40:44;9.201577389758313;;;9.187;99.60030282885322
15558;BME280;7880;50.110;9.372;2022-09-17T17:45:47;9.25704189101234;;;9.187;100.0
15558;BME280;7880;50.110;9.372;2022-09-17T17:50:40;9.166281816386618;;;9.125;100.0
15558;BME280;7880;50.110;9.372;2022-09-17T17:55:55;9.171324040280888;;;9.125;100.0
15558;BME280;7880;50.110;9.372;2022-09-17T18:00:57;9.1360284791328;;;9.125;99.73122378515062
15558;BME280;7880;50.110;9.372;2022-09-17T18:05:55;9.085606273659504;;;9.062;99.69781096507477
15558;BME280;7880;50.110;9.372;2022-09-17T18:11:09;9.025099665508606;;;9.0;98.58055902464298
15558;BME280;7880;50.110;9.372;2022-09-17T18:16:12;8.929297621647128;;;8.937;99.02461768609464
15558;BME280;7880;50.110;9.372;2022-09-17T18:21:07;8.934339831862598;;;8.875;98.7443900119069
15558;BME280;7880;50.110;9.372;2022-09-17T18:26:12;8.808284663787344;;;8.812;99.90153647776653
15558;BME280;7880;50.110;9.372;2022-09-17T18:31:19;8.808284663787344;;;8.812;99.8495377376796
15558;BME280;7880;50.110;9.372;2022-09-17T18:36:23;8.783073652000166;;;8.75;100.0
15558;BME280;7880;50.110;9.372;2022-09-17T18:41:23;8.757862647488945;;;8.687;100.0
15558;BME280;7880;50.110;9.372;2022-09-17T18:46:28;8.702398463175632;;;8.687;100.0
15558;BME280;7880;50.110;9.372;2022-09-17T18:51:31;8.65701870220364;;;8.625;100.0
15558;BME280;7880;50.110;9.372;2022-09-17T18:56:35;8.621723348856904;;;8.562;100.0
15558;BME280;7880;50.110;9.372;2022-09-17T19:01:42;8.571301440242678;;;8.562;100.0
15558;BME280;7880;50.110;9.372;2022-09-17T19:06:46;8.530963934306055;;;8.5;100.0
15558;BME280;7880;50.110;9.372;2022-09-17T19:11:46;8.52592174737365;;;8.5;100.0
15558;BME280;7880;50.110;9.372;2022-09-17T19:16:49;8.510795188322664;;;8.5;100.0
15558;BME280;7880;50.110;9.372;2022-09-17T19:21:53;8.530963934306055;;;8.5;100.0
15558;BME280;7880;50.110;9.372;2022-09-17T19:27:01;8.581385819637216;;;8.5;100.0
15558;BME280;7880;50.110;9.372;2022-09-17T19:32:02;8.465415526885772;;;8.437;100.0
15558;BME280;7880;50.110;9.372;2022-09-17T19:37:09;8.435162432357902;;;8.437;100.0
15558;BME280;7880;50.110;9.372;2022-09-17T19:42:11;8.55113268494606;;;8.5;100.0
15558;BME280;7880;50.110;9.372;2022-09-17T19:47:14;8.561217062012293;;;8.562;100.0
15558;BME280;7880;50.110;9.372;2022-09-17T19:52:20;8.611638964805753;;;8.562;100.0
15558;BME280;7880;50.110;9.372;2022-09-17T19:57:21;8.626765541319037;;;8.625;100.0
15558;BME280;7880;50.110;9.372;2022-09-17T20:02:25;8.606596773216733;;;8.625;100.0
15558;BME280;7880;50.110;9.372;2022-09-17T20:07:28;8.667103091493482;;;8.687;100.0
15558;BME280;7880;50.110;9.372;2022-09-17T20:12:37;8.67214528657496;;;8.687;99.75152379692035
15558;BME280;7880;50.110;9.372;2022-09-17T20:17:41;8.687271873565624;;;8.75;100.0
15558;BME280;7880;50.110;9.372;2022-09-17T20:27:45;8.646934314077953;;;8.687;100.0
15558;BME280;7880;50.110;9.372;2022-09-17T20:32:53;8.591470200195909;;;8.625;100.0
15558;BME280;7880;50.110;9.372;2022-09-17T20:38:02;8.601554581918753;;;8.625;100.0
15558;BME280;7880;50.110;9.372;2022-09-17T20:43:00;8.541048309043981;;;8.562;100.0
15558;BME280;7880;50.110;9.372;2022-09-17T20:48:04;8.515837374381954;;;8.5;100.0
15558;BME280;7880;50.110;9.372;2022-09-17T20:53:12;8.450288978312164;;;8.5;100.0
15558;BME280;7880;50.110;9.372;2022-09-17T20:58:12;8.38474063142785;;;8.375;100.0
15558;BME280;7880;50.110;9.372;2022-09-17T21:03:16;8.354487564839655;;;8.375;100.0
15558;BME280;7880;50.110;9.372;2022-09-17T21:08:19;8.34944538809359;;;8.375;100.0
15558;BME280;7880;50.110;9.372;2022-09-17T21:13:21;8.334318859601627;;;8.375;100.0
15558;BME280;7880;50.110;9.372;2022-09-17T21:18:27;8.344403211638564;;;8.312;100.0
15558;BME280;7880;50.110;9.372;2022-09-17T21:23:33;8.354487564839655;;;8.375;100.0
15558;BME280;7880;50.110;9.372;2022-09-17T21:28:39;8.36961409682408;;;8.375;100.0
15558;BME280;7880;50.110;9.372;2022-09-17T21:33:41;8.435162432357902;;;8.437;100.0
15558;BME280;7880;50.110;9.372;2022-09-17T21:38:49;8.460373343736865;;;8.437;100.0
15558;BME280;7880;50.110;9.372;2022-09-17T21:43:49;8.435162432357902;;;8.437;100.0
15558;BME280;7880;50.110;9.372;2022-09-17T21:48:54;8.379698452935553;;;8.375;100.0
15558;BME280;7880;50.110;9.372;2022-09-17T21:54:02;8.339361035474576;;;8.375;100.0
15558;BME280;7880;50.110;9.372;2022-09-17T21:59:05;8.238517573312857;;;8.25;100.0
15558;BME280;7880;50.110;9.372;2022-09-17T22:04:16;8.193138053320581;;;8.25;100.0
15558;BME280;7880;50.110;9.372;2022-09-17T22:09:22;8.273812771827215;;;8.187;100.0
15558;BME280;7880;50.110;9.372;2022-09-17T22:14:30;8.293981463095406;;;8.25;100.0
15558;BME280;7880;50.110;9.372;2022-09-17T22:19:40;8.324234508728841;;;8.312;100.0
15558;BME280;7880;50.110;9.372;2022-09-17T22:24:43;8.354487564839655;;;8.312;100.0
15558;BME280;7880;50.110;9.372;2022-09-17T22:29:44;8.29902363664005;;;8.312;100.0
15558;BME280;7880;50.110;9.372;2022-09-17T22:34:52;8.31415015902021;;;8.312;100.0
15558;BME280;7880;50.110;9.372;2022-09-17T22:40:03;8.34944538809359;;;8.312;100.0
15558;BME280;7880;50.110;9.372;2022-09-17T22:44:57;8.3645719192049;;;8.312;100.0
15558;BME280;7880;50.110;9.372;2022-09-17T22:50:01;8.3645719192049;;;8.312;100.0
15558;BME280;7880;50.110;9.372;2022-09-17T22:55:08;8.319192333729006;;;8.312;100.0
15558;BME280;7880;50.110;9.372;2022-09-17T22:59:56;8.36961409682408;;;8.375;100.0
15558;BME280;7880;50.110;9.372;2022-09-17T23:05:00;8.319192333729006;;;8.312;100.0
15558;BME280;7880;50.110;9.372;2022-09-17T23:10:11;8.329276684019714;;;8.312;100.0
15558;BME280;7880;50.110;9.372;2022-09-17T23:15:09;8.38474063142785;;;8.375;100.0
15558;BME280;7880;50.110;9.372;2022-09-17T23:20:12;8.38474063142785;;;8.375;100.0
15558;BME280;7880;50.110;9.372;2022-09-17T23:25:18;8.29902363664005;;;8.312;100.0
15558;BME280;7880;50.110;9.372;2022-09-17T23:30:21;8.354487564839655;;;8.312;100.0
15558;BME280;7880;50.110;9.372;2022-09-17T23:35:28;8.344403211638564;;;8.312;100.0
15558;BME280;7880;50.110;9.372;2022-09-17T23:40:40;8.354487564839655;;;8.312;100.0
15558;BME280;7880;50.110;9.372;2022-09-17T23:45:36;8.31415015902021;;;8.312;100.0
15558;BME280;7880;50.110;9.372;2022-09-17T23:50:42;8.34944538809359;;;8.312;100.0
15558;BME280;7880;50.110;9.372;2022-09-17T23:55:51;8.334318859601627;;;8.312;100.0
